createdAt,value
2023-06-08T00:01:55.093Z,100908.09
2023-06-08T00:04:23.865Z,100944.78
2023-06-08T00:06:53.788Z,100945.09
2023-06-08T00:09:21.859Z,100943.41
2023-06-08T00:11:50.112Z,100942.88
2023-06-08T00:14:18.422Z,100943.16
2023-06-08T00:16:49.201Z,100947.78
2023-06-08T00:19:17.239Z,100951.34
2023-06-08T00:21:45.857Z,100937.28
2023-06-08T00:24:15.074Z,100938.22
2023-06-08T00:26:42.944Z,100941.47
2023-06-08T00:29:10.781Z,100943.81
2023-06-08T00:31:38.729Z,100944.44
2023-06-08T00:34:06.692Z,100939.09
2023-06-08T00:36:34.498Z,100945.84
2023-06-08T00:39:02.285Z,100951.09
2023-06-08T00:41:31.584Z,100939.09
2023-06-08T00:43:59.476Z,100934.16
2023-06-08T00:46:31.480Z,100941.94
2023-06-08T00:48:59.729Z,100940.44
2023-06-08T00:51:29.612Z,100938.75
2023-06-08T00:53:58.204Z,100935.41
2023-06-08T00:56:27.999Z,100941.59
2023-06-08T00:58:57.902Z,100936.63
2023-06-08T01:01:26.283Z,100935.16
2023-06-08T01:03:56.696Z,100931.16
2023-06-08T01:06:24.604Z,100930.22
2023-06-08T01:08:58.683Z,100931.34
2023-06-08T01:11:38.639Z,100930.91
2023-06-08T01:14:20.976Z,100930.06
2023-06-08T01:16:51.988Z,100938.22
2023-06-08T01:19:29.448Z,100932.31
2023-06-08T01:22:11.757Z,100929.13
2023-06-08T01:24:46.381Z,100930.81
2023-06-08T01:27:14.412Z,100936.06
2023-06-08T01:29:42.998Z,100916.69
2023-06-08T01:32:11.003Z,100919.31
2023-06-08T01:34:38.838Z,100922.00
2023-06-08T01:37:10.513Z,100922.13
2023-06-08T01:39:48.049Z,100925.56
2023-06-08T01:42:19.810Z,100929.78
2023-06-08T01:44:52.486Z,100922.75
2023-06-08T01:47:20.507Z,100937.53
2023-06-08T01:49:49.573Z,100923.28
2023-06-08T01:52:17.544Z,100925.91
2023-06-08T01:54:48.548Z,100923.13
2023-06-08T01:57:16.314Z,100918.63
2023-06-08T01:59:44.104Z,100917.88
2023-06-08T02:02:12.097Z,100928.50
2023-06-08T02:04:39.927Z,100920.50
2023-06-08T02:07:07.968Z,100916.28
2023-06-08T02:09:35.833Z,100917.44
2023-06-08T02:12:09.951Z,100921.81
2023-06-08T02:14:38.062Z,100919.19
2023-06-08T02:17:07.127Z,100915.09
2023-06-08T02:19:36.178Z,100922.22
2023-06-08T02:22:04.145Z,100915.38
2023-06-08T02:24:31.952Z,100914.66
2023-06-08T02:27:01.980Z,100908.97
2023-06-08T02:29:31.082Z,100912.59
2023-06-08T02:31:58.867Z,100913.56
2023-06-08T02:34:26.957Z,100910.50
2023-06-08T02:36:54.855Z,100915.19
2023-06-08T02:39:22.620Z,100906.03
2023-06-08T02:41:50.899Z,100914.06
2023-06-08T02:44:18.639Z,100911.66
2023-06-08T02:46:48.398Z,100920.63
2023-06-08T02:49:16.370Z,100917.75
2023-06-08T02:51:44.163Z,100918.88
2023-06-08T02:54:12.022Z,100914.84
2023-06-08T02:56:39.775Z,100910.09
2023-06-08T02:59:07.630Z,100914.78
2023-06-08T03:01:38.164Z,100914.28
2023-06-08T03:04:07.698Z,100909.25
2023-06-08T03:06:37.589Z,100906.13
2023-06-08T03:09:05.846Z,100908.09
2023-06-08T03:11:33.897Z,100900.63
2023-06-08T03:14:01.699Z,100897.25
2023-06-08T03:16:29.678Z,100899.13
2023-06-08T03:18:58.144Z,100896.75
2023-06-08T03:21:29.659Z,100897.06
2023-06-08T03:23:57.496Z,100893.56
2023-06-08T03:26:25.314Z,100897.97
2023-06-08T03:28:53.422Z,100893.69
2023-06-08T03:31:22.144Z,100901.16
2023-06-08T03:33:50.078Z,100891.53
2023-06-08T03:36:19.085Z,100897.44
2023-06-08T03:38:48.201Z,100893.31
2023-06-08T03:41:15.986Z,100892.66
2023-06-08T03:43:43.792Z,100895.44
2023-06-08T03:46:11.678Z,100898.53
2023-06-08T03:48:39.474Z,100894.50
2023-06-08T03:51:07.242Z,100898.44
2023-06-08T03:53:34.987Z,100902.16
2023-06-08T03:56:04.458Z,100896.25
2023-06-08T03:58:32.229Z,100888.69
2023-06-08T04:01:00.106Z,100888.00
2023-06-08T04:03:29.222Z,100883.81
2023-06-08T04:05:57.771Z,100879.59
2023-06-08T04:08:25.583Z,100885.56
2023-06-08T04:10:53.366Z,100883.50
2023-06-08T04:13:22.493Z,100884.09
2023-06-08T04:15:50.337Z,100888.38
2023-06-08T04:18:18.105Z,100891.06
2023-06-08T04:20:46.177Z,100894.38
2023-06-08T04:23:14.024Z,100894.16
2023-06-08T04:25:41.905Z,100893.06
2023-06-08T04:28:09.690Z,100895.41
2023-06-08T04:30:38.791Z,100892.03
2023-06-08T04:33:06.624Z,100867.06
2023-06-08T04:35:34.419Z,100885.97
2023-06-08T04:38:02.696Z,100893.91
2023-06-08T04:40:34.407Z,100894.16
2023-06-08T04:43:03.227Z,100897.91
2023-06-08T04:45:31.201Z,100906.94
2023-06-08T04:48:00.381Z,100899.03
2023-06-08T04:50:28.684Z,100905.94
2023-06-08T04:52:56.798Z,100903.16
2023-06-08T04:55:24.565Z,100894.44
2023-06-08T04:57:52.376Z,100897.91
2023-06-08T05:00:21.108Z,100904.25
2023-06-08T05:02:48.965Z,100905.94
2023-06-08T05:05:18.360Z,100895.66
2023-06-08T05:07:46.127Z,100898.84
2023-06-08T05:10:13.962Z,100898.63
2023-06-08T05:12:41.738Z,100897.34
2023-06-08T05:15:10.121Z,100902.75
2023-06-08T05:17:37.955Z,100890.78
2023-06-08T05:20:07.347Z,100909.56
2023-06-08T05:22:36.683Z,100902.22
2023-06-08T05:25:04.640Z,100905.38
2023-06-08T05:27:32.633Z,100901.47
2023-06-08T05:30:02.742Z,100901.88
2023-06-08T05:32:30.656Z,100917.03
2023-06-08T05:34:59.624Z,100901.59
2023-06-08T05:37:27.764Z,100905.09
2023-06-08T05:39:56.916Z,100901.25
2023-06-08T05:42:24.680Z,100904.34
2023-06-08T05:44:52.526Z,100912.41
2023-06-08T05:47:20.502Z,100902.69
2023-06-08T05:49:48.288Z,100901.94
2023-06-08T05:52:16.049Z,100898.47
2023-06-08T05:54:43.772Z,100909.03
2023-06-08T05:57:12.913Z,100902.31
2023-06-08T05:59:40.673Z,100901.56
2023-06-08T06:02:08.528Z,100904.34
2023-06-08T06:04:37.841Z,100905.72
2023-06-08T06:07:07.300Z,100899.00
2023-06-08T06:09:35.258Z,100900.69
2023-06-08T06:12:03.802Z,100902.34
2023-06-08T06:14:40.058Z,100905.53
2023-06-08T06:17:08.665Z,100897.25
2023-06-08T06:19:39.036Z,100903.81
2023-06-08T06:22:08.301Z,100905.91
2023-06-08T06:24:36.270Z,100902.16
2023-06-08T06:27:04.098Z,100894.66
2023-06-08T06:29:31.932Z,100905.88
2023-06-08T06:32:01.338Z,100897.81
2023-06-08T06:34:29.177Z,100896.13
2023-06-08T06:36:58.042Z,100888.00
2023-06-08T06:39:25.892Z,100890.38
2023-06-08T06:41:53.881Z,100889.16
2023-06-08T06:44:21.663Z,100908.34
2023-06-08T06:46:49.412Z,100905.81
2023-06-08T06:49:18.619Z,100910.13
2023-06-08T06:51:46.445Z,100911.63
2023-06-08T06:54:18.074Z,100908.25
2023-06-08T06:56:45.865Z,100915.22
2023-06-08T06:59:13.629Z,100915.09
2023-06-08T07:01:42.457Z,100912.06
2023-06-08T07:04:11.086Z,100912.41
2023-06-08T07:06:42.718Z,100910.88
2023-06-08T07:09:11.007Z,100898.81
2023-06-08T07:11:38.805Z,100913.00
2023-06-08T07:14:06.602Z,100913.00
2023-06-08T07:16:34.516Z,100923.50
2023-06-08T07:19:05.269Z,100920.88
2023-06-08T07:21:41.651Z,100920.75
2023-06-08T07:24:50.219Z,100924.53
2023-06-08T07:27:10.047Z,100922.84
2023-06-08T07:29:37.859Z,100914.91
2023-06-08T07:32:06.246Z,100913.50
2023-06-08T07:34:34.115Z,100919.28
2023-06-08T07:37:02.098Z,100915.09
2023-06-08T07:39:31.295Z,100917.81
2023-06-08T07:41:59.079Z,100924.31
2023-06-08T07:44:26.855Z,100920.88
2023-06-08T07:46:54.780Z,100922.22
2023-06-08T07:49:22.773Z,100927.25
2023-06-08T07:51:51.041Z,100923.91
2023-06-08T07:54:20.438Z,100913.94
2023-06-08T07:56:49.739Z,100908.22
2023-06-08T07:59:17.552Z,100899.25
2023-06-08T08:01:45.457Z,100893.78
2023-06-08T08:04:13.450Z,100893.19
2023-06-08T08:06:41.336Z,100888.78
2023-06-08T08:09:09.185Z,100883.63
2023-06-08T08:11:38.050Z,100880.84
2023-06-08T08:14:10.575Z,100879.84
2023-06-08T08:16:38.749Z,100880.22
2023-06-08T08:19:06.706Z,100881.66
2023-06-08T08:21:34.555Z,100885.28
2023-06-08T08:24:02.409Z,100869.63
2023-06-08T08:26:30.834Z,100871.94
2023-06-08T08:28:58.727Z,100871.38
2023-06-08T08:31:27.939Z,100872.84
2023-06-08T08:33:55.721Z,100874.56
2023-06-08T08:36:23.544Z,100872.44
2023-06-08T08:38:51.380Z,100876.31
2023-06-08T08:41:22.106Z,100873.56
2023-06-08T08:43:52.435Z,100871.13
2023-06-08T08:46:23.567Z,100862.28
2023-06-08T08:48:54.600Z,100864.06
2023-06-08T08:51:22.760Z,100866.84
2023-06-08T08:53:52.308Z,100862.63
2023-06-08T08:56:20.991Z,100859.88
2023-06-08T08:58:52.046Z,100862.84
2023-06-08T09:01:20.019Z,100876.19
2023-06-08T09:03:47.877Z,100862.16
2023-06-08T09:06:17.323Z,100864.31
2023-06-08T09:08:45.178Z,100857.03
2023-06-08T09:11:13.337Z,100862.13
2023-06-08T09:13:41.366Z,100848.56
2023-06-08T09:16:11.062Z,100856.69
2023-06-08T09:18:39.269Z,100853.34
2023-06-08T09:21:25.299Z,100854.47
2023-06-08T09:24:10.306Z,100852.75
2023-06-08T09:26:39.956Z,100848.81
2023-06-08T09:29:08.001Z,100839.94
2023-06-08T09:31:41.053Z,100837.44
2023-06-08T09:34:11.122Z,100839.19
2023-06-08T09:36:40.405Z,100834.28
2023-06-08T09:39:09.266Z,100828.47
2023-06-08T09:41:38.490Z,100809.25
2023-06-08T09:44:19.841Z,100819.63
2023-06-08T09:46:49.174Z,100827.91
2023-06-08T09:49:18.362Z,100820.38
2023-06-08T09:51:58.140Z,100826.44
2023-06-08T09:54:28.403Z,100825.09
2023-06-08T09:56:57.194Z,100825.94
2023-06-08T09:59:31.279Z,100830.72
2023-06-08T10:02:00.761Z,100829.88
2023-06-08T10:04:33.360Z,100832.00
2023-06-08T10:07:05.957Z,100831.69
2023-06-08T10:09:37.388Z,100828.78
2023-06-08T10:12:06.559Z,100821.94
2023-06-08T10:14:35.307Z,100830.16
2023-06-08T10:17:04.601Z,100824.69
2023-06-08T10:19:33.738Z,100821.03
2023-06-08T10:22:01.841Z,100810.22
2023-06-08T10:24:32.291Z,100823.63
2023-06-08T10:27:10.848Z,100812.59
2023-06-08T10:29:39.103Z,100816.94
2023-06-08T10:32:09.582Z,100813.06
2023-06-08T10:34:41.427Z,100816.03
2023-06-08T10:37:28.084Z,100801.28
2023-06-08T10:39:59.251Z,100791.66
2023-06-08T10:42:27.382Z,100783.41
2023-06-08T10:44:56.631Z,100797.16
2023-06-08T10:47:24.834Z,100804.75
2023-06-08T10:50:00.831Z,100789.03
2023-06-08T10:52:29.131Z,100785.81
2023-06-08T10:54:59.888Z,100786.69
2023-06-08T10:57:39.216Z,100785.38
2023-06-08T11:00:44.741Z,100780.50
2023-06-08T11:03:22.564Z,100782.91
2023-06-08T11:05:55.345Z,100782.31
2023-06-08T11:08:23.751Z,100766.47
2023-06-08T11:10:57.224Z,100776.09
2023-06-08T11:13:25.689Z,100773.94
2023-06-08T11:15:53.625Z,100765.63
2023-06-08T11:18:21.936Z,100768.97
2023-06-08T11:20:49.990Z,100760.81
2023-06-08T11:23:18.141Z,100759.63
2023-06-08T11:25:47.064Z,100750.66
2023-06-08T11:28:16.429Z,100760.31
2023-06-08T11:30:44.340Z,100751.63
2023-06-08T11:33:15.770Z,100743.59
2023-06-08T11:35:43.972Z,100748.09
2023-06-08T11:38:11.764Z,100749.59
2023-06-08T11:40:42.817Z,100735.13
2023-06-08T11:43:12.275Z,100737.13
2023-06-08T11:45:41.465Z,100730.94
2023-06-08T11:50:47.537Z,100710.81
2023-06-08T11:53:17.680Z,100729.63
2023-06-08T11:55:47.808Z,100715.63
2023-06-08T11:58:15.972Z,100722.69
2023-06-08T12:00:46.297Z,100720.88
2023-06-08T12:03:14.156Z,100705.84
2023-06-08T12:05:44.578Z,100713.25
2023-06-08T12:08:16.167Z,100709.91
2023-06-08T12:10:47.610Z,100708.28
2023-06-08T12:13:17.809Z,100700.66
2023-06-08T12:15:48.944Z,100697.50
2023-06-08T12:18:18.774Z,100680.84
2023-06-08T12:20:48.004Z,100694.78
2023-06-08T12:23:16.198Z,100693.25
2023-06-08T12:25:44.531Z,100692.94
2023-06-08T12:28:18.165Z,100689.25
2023-06-08T12:30:47.408Z,100689.22
2023-06-08T12:33:18.877Z,100684.25
2023-06-08T12:35:47.108Z,100690.41
2023-06-08T12:38:14.969Z,100698.28
2023-06-08T12:40:48.342Z,100686.63
2023-06-08T12:43:19.358Z,100676.63
2023-06-08T12:45:49.031Z,100664.41
2023-06-08T12:48:17.157Z,100680.09
2023-06-08T12:50:45.124Z,100682.75
2023-06-08T12:53:13.066Z,100677.69
2023-06-08T12:55:41.042Z,100676.94
2023-06-08T12:58:09.185Z,100673.56
2023-06-08T13:00:37.084Z,100669.84
2023-06-08T13:03:08.964Z,100671.94
2023-06-08T13:05:37.883Z,100660.78
2023-06-08T13:08:07.900Z,100650.56
2023-06-08T13:10:36.620Z,100650.84
2023-06-08T13:13:07.462Z,100646.09
2023-06-08T13:15:36.216Z,100632.41
2023-06-08T13:18:04.574Z,100629.19
2023-06-08T13:20:33.882Z,100634.66
2023-06-08T13:23:01.692Z,100633.28
2023-06-08T13:25:29.778Z,100633.53
2023-06-08T13:27:58.109Z,100634.06
2023-06-08T13:30:28.945Z,100629.13
2023-06-08T13:33:01.065Z,100637.81
2023-06-08T13:35:29.571Z,100629.06
2023-06-08T13:37:59.256Z,100627.22
2023-06-08T13:40:32.725Z,100620.84
2023-06-08T13:43:00.789Z,100615.25
2023-06-08T13:45:28.675Z,100621.50
2023-06-08T13:47:56.704Z,100617.16
2023-06-08T13:50:28.151Z,100609.41
2023-06-08T13:52:58.577Z,100601.69
2023-06-08T13:55:29.228Z,100612.97
2023-06-08T13:57:57.018Z,100604.50
2023-06-08T14:00:24.984Z,100617.81
2023-06-08T14:02:52.904Z,100613.75
2023-06-08T14:05:21.070Z,100605.59
2023-06-08T14:07:49.811Z,100604.22
2023-06-08T14:10:17.988Z,100606.91
2023-06-08T14:12:48.607Z,100607.75
2023-06-08T14:15:17.311Z,100601.75
2023-06-08T14:17:48.920Z,100603.56
2023-06-08T14:20:16.837Z,100600.13
2023-06-08T14:22:44.622Z,100596.09
2023-06-08T14:25:12.445Z,100601.63
2023-06-08T14:27:40.369Z,100591.97
2023-06-08T14:30:10.867Z,100583.22
2023-06-08T14:32:39.050Z,100593.44
2023-06-08T14:35:08.494Z,100591.72
2023-06-08T14:37:36.607Z,100580.19
2023-06-08T14:40:05.554Z,100571.50
2023-06-08T14:42:33.820Z,100567.81
2023-06-08T14:45:01.921Z,100579.44
2023-06-08T14:47:31.199Z,100575.06
2023-06-08T14:49:59.121Z,100568.66
2023-06-08T14:52:26.891Z,100572.88
2023-06-08T14:54:54.794Z,100573.69
2023-06-08T14:57:22.662Z,100563.63
2023-06-08T14:59:50.404Z,100560.41
2023-06-08T15:02:18.700Z,100561.41
2023-06-08T15:04:47.844Z,100564.47
2023-06-08T15:07:15.786Z,100563.56
2023-06-08T15:09:44.683Z,100563.47
2023-06-08T15:12:12.583Z,100568.19
2023-06-08T15:14:40.471Z,100551.44
2023-06-08T15:17:08.418Z,100558.50
2023-06-08T15:19:36.710Z,100567.13
2023-06-08T15:22:06.430Z,100559.13
2023-06-08T15:24:34.299Z,100565.81
2023-06-08T15:27:02.126Z,100557.09
2023-06-08T15:29:31.013Z,100557.81
2023-06-08T15:31:58.785Z,100561.19
2023-06-08T15:34:26.605Z,100556.66
2023-06-08T15:36:54.449Z,100561.47
2023-06-08T15:39:23.625Z,100556.59
2023-06-08T15:41:51.416Z,100554.34
2023-06-08T15:44:19.269Z,100559.97
2023-06-08T15:46:47.115Z,100556.50
2023-06-08T15:49:15.024Z,100550.59
2023-06-08T15:51:45.924Z,100546.63
2023-06-08T15:54:13.734Z,100544.09
2023-06-08T15:56:42.900Z,100542.25
2023-06-08T15:59:11.387Z,100550.25
2023-06-08T16:01:39.368Z,100539.56
2023-06-08T16:04:07.467Z,100547.94
2023-06-08T16:06:36.752Z,100535.41
2023-06-08T16:09:04.753Z,100531.13
2023-06-08T16:11:33.648Z,100544.84
2023-06-08T16:14:05.140Z,100532.88
2023-06-08T16:16:32.967Z,100515.69
2023-06-08T16:19:00.779Z,100529.84
2023-06-08T16:21:31.703Z,100525.13
2023-06-08T16:23:59.696Z,100529.00
2023-06-08T16:26:27.763Z,100524.56
2023-06-08T16:28:55.614Z,100520.75
2023-06-08T16:31:25.411Z,100508.91
2023-06-08T16:33:53.329Z,100523.25
2023-06-08T16:36:21.279Z,100510.22
2023-06-08T16:38:49.175Z,100504.13
2023-06-08T16:41:17.012Z,100516.47
2023-06-08T16:43:45.549Z,100508.56
2023-06-08T16:46:13.425Z,100514.25
2023-06-08T16:48:42.618Z,100508.81
2023-06-08T16:51:10.607Z,100513.97
2023-06-08T16:53:38.414Z,100524.19
2023-06-08T16:56:06.263Z,100522.97
2023-06-08T16:58:34.646Z,100521.25
2023-06-08T17:01:02.639Z,100520.78
2023-06-08T17:03:30.559Z,100519.59
2023-06-08T17:05:59.728Z,100514.75
2023-06-08T17:08:27.501Z,100519.38
2023-06-08T17:10:57.733Z,100514.50
2023-06-08T17:13:25.505Z,100520.94
2023-06-08T17:15:53.276Z,100530.94
2023-06-08T17:18:21.439Z,100519.53
2023-06-08T17:20:51.636Z,100518.50
2023-06-08T17:23:20.977Z,100520.53
2023-06-08T17:25:48.977Z,100515.56
2023-06-08T17:28:16.772Z,100516.22
2023-06-08T17:30:44.713Z,100508.91
2023-06-08T17:33:12.653Z,100514.91
2023-06-08T17:35:40.530Z,100517.59
2023-06-08T17:38:09.134Z,100514.59
2023-06-08T17:40:38.770Z,100511.00
2023-06-08T17:43:06.570Z,100515.97
2023-06-08T17:45:34.556Z,100512.66
2023-06-08T17:48:02.498Z,100503.47
2023-06-08T17:50:30.375Z,100513.78
2023-06-08T17:53:02.380Z,100523.94
2023-06-08T17:55:30.682Z,100520.59
2023-06-08T17:58:00.334Z,100527.75
2023-06-08T18:00:28.285Z,100530.72
2023-06-08T18:02:56.579Z,100536.56
2023-06-08T18:05:25.155Z,100529.25
2023-06-08T18:07:53.136Z,100519.78
2023-06-08T18:10:20.912Z,100538.56
2023-06-08T18:12:48.746Z,100535.09
2023-06-08T18:15:18.159Z,100540.88
2023-06-08T18:17:46.018Z,100541.22
2023-06-08T18:20:14.101Z,100545.19
2023-06-08T18:22:43.881Z,100540.88
2023-06-08T18:25:13.270Z,100538.72
2023-06-08T18:27:41.163Z,100546.34
2023-06-08T18:30:10.737Z,100550.31
2023-06-08T18:32:40.716Z,100546.50
2023-06-08T18:35:10.922Z,100544.28
2023-06-08T18:37:38.808Z,100547.44
2023-06-08T18:40:08.105Z,100546.09
2023-06-08T18:42:35.917Z,100547.75
2023-06-08T18:45:06.701Z,100551.19
2023-06-08T18:47:34.568Z,100553.97
2023-06-08T18:50:04.215Z,100549.66
2023-06-08T18:52:33.598Z,100562.59
2023-06-08T18:55:01.388Z,100548.91
2023-06-08T18:57:30.307Z,100571.50
2023-06-08T18:59:58.208Z,100572.16
2023-06-08T19:02:27.161Z,100563.13
2023-06-08T19:04:55.027Z,100572.56
2023-06-08T19:07:25.167Z,100570.69
2023-06-08T19:09:53.012Z,100579.13
2023-06-08T19:12:21.078Z,100567.47
2023-06-08T19:14:48.882Z,100575.22
2023-06-08T19:17:16.851Z,100575.84
2023-06-08T19:19:44.790Z,100577.44
2023-06-08T19:22:12.671Z,100582.00
2023-06-08T19:24:41.837Z,100589.78
2023-06-08T19:27:09.687Z,100586.06
2023-06-08T19:29:37.789Z,100592.75
2023-06-08T19:32:06.479Z,100593.53
2023-06-08T19:34:35.861Z,100597.09
2023-06-08T19:37:03.784Z,100597.69
2023-06-08T19:39:32.007Z,100603.91
2023-06-08T19:42:03.919Z,100597.69
2023-06-08T19:44:32.212Z,100593.28
2023-06-08T19:47:00.358Z,100602.00
2023-06-08T19:49:28.526Z,100599.25
2023-06-08T19:51:56.642Z,100605.25
2023-06-08T19:54:24.562Z,100601.56
2023-06-08T19:56:53.037Z,100599.09
2023-06-08T19:59:22.294Z,100600.06
2023-06-08T20:01:52.570Z,100608.44
2023-06-08T20:04:20.739Z,100602.34
2023-06-08T20:06:50.942Z,100612.94
2023-06-08T20:09:22.083Z,100627.44
2023-06-08T20:11:50.044Z,100624.44
2023-06-08T20:14:18.889Z,100617.59
2023-06-08T20:16:52.550Z,100623.34
2023-06-08T20:19:21.682Z,100617.75
2023-06-08T20:21:50.242Z,100618.34
2023-06-08T20:24:18.315Z,100623.88
2023-06-08T20:26:47.931Z,100626.81
2023-06-08T20:29:16.161Z,100629.75
2023-06-08T20:31:44.445Z,100625.72
2023-06-08T20:34:13.649Z,100622.00
2023-06-08T20:36:41.556Z,100630.06
2023-06-08T20:39:09.451Z,100625.63
2023-06-08T20:41:39.138Z,100636.34
2023-06-08T20:44:09.564Z,100625.63
2023-06-08T20:46:37.337Z,100633.16
2023-06-08T20:49:06.453Z,100631.75
2023-06-08T20:51:36.365Z,100627.03
2023-06-08T20:54:04.409Z,100634.53
2023-06-08T20:56:32.262Z,100636.78
2023-06-08T20:59:00.070Z,100639.00
2023-06-08T21:01:27.889Z,100646.50
2023-06-08T21:03:58.731Z,100651.34
2023-06-08T21:06:26.889Z,100651.19
2023-06-08T21:08:56.721Z,100654.84
2023-06-08T21:11:24.598Z,100656.19
2023-06-08T21:13:55.843Z,100654.78
2023-06-08T21:16:23.686Z,100656.19
2023-06-08T21:18:51.611Z,100655.50
2023-06-08T21:21:19.479Z,100662.97
2023-06-08T21:23:47.376Z,100664.22
2023-06-08T21:26:16.570Z,100659.47
2023-06-08T21:28:44.425Z,100654.72
2023-06-08T21:31:12.225Z,100651.66
2023-06-08T21:33:41.652Z,100658.06
2023-06-08T21:36:12.475Z,100645.94
2023-06-08T21:38:40.804Z,100656.75
2023-06-08T21:41:09.029Z,100644.69
2023-06-08T21:43:38.646Z,100655.94
2023-06-08T21:46:06.499Z,100657.72
2023-06-08T21:48:34.412Z,100648.28
2023-06-08T21:51:02.278Z,100656.91
2023-06-08T21:53:30.502Z,100658.59
2023-06-08T21:55:58.880Z,100660.63
2023-06-08T21:58:27.290Z,100664.13
2023-06-08T22:00:56.935Z,100658.25
2023-06-08T22:03:24.861Z,100668.34
2023-06-08T22:05:52.763Z,100667.09
2023-06-08T22:08:21.055Z,100664.28
2023-06-08T22:10:48.946Z,100680.63
2023-06-08T22:13:16.856Z,100663.78
2023-06-08T22:15:45.099Z,100662.63
2023-06-08T22:18:16.164Z,100657.75
2023-06-08T22:20:45.399Z,100662.19
2023-06-08T22:23:13.184Z,100656.66
2023-06-08T22:25:42.226Z,100663.72
2023-06-08T22:28:13.791Z,100663.28
2023-06-08T22:30:41.774Z,100658.25
2023-06-08T22:33:09.664Z,100670.31
2023-06-08T22:35:38.885Z,100669.28
2023-06-08T22:38:06.707Z,100665.63
2023-06-08T22:40:47.104Z,100656.88
2023-06-08T22:43:14.871Z,100664.38
2023-06-08T22:45:42.763Z,100662.47
2023-06-08T22:48:10.952Z,100662.28
2023-06-08T22:50:40.195Z,100663.75
2023-06-08T22:53:13.792Z,100661.59
2023-06-08T22:55:41.931Z,100654.44
2023-06-08T22:58:09.723Z,100652.31
2023-06-08T23:00:40.012Z,100657.81
2023-06-08T23:03:09.399Z,100655.09
2023-06-08T23:05:37.355Z,100654.97
2023-06-08T23:08:09.086Z,100654.38
2023-06-08T23:10:36.996Z,100653.22
2023-06-08T23:13:04.769Z,100655.50
2023-06-08T23:15:33.788Z,100654.41
2023-06-08T23:18:02.175Z,100657.41
2023-06-08T23:20:31.550Z,100656.94
2023-06-08T23:22:59.358Z,100660.06
2023-06-08T23:25:29.010Z,100653.59
2023-06-08T23:27:58.078Z,100656.59
2023-06-08T23:30:26.091Z,100655.97
2023-06-08T23:32:53.964Z,100649.28
2023-06-08T23:35:21.808Z,100651.34
2023-06-08T23:37:49.559Z,100648.09
2023-06-08T23:40:17.309Z,100651.81
2023-06-08T23:42:46.574Z,100629.19
2023-06-08T23:45:14.412Z,100654.69
2023-06-08T23:47:42.728Z,100639.94
2023-06-08T23:50:11.039Z,100650.47
2023-06-08T23:52:38.831Z,100646.06
2023-06-08T23:55:07.674Z,100646.31
2023-06-08T23:57:35.803Z,100644.72
